Time;durP1;ratioP1;P1;durP2;ratioP2;P2;SDS_P1;SDS_P2;PMS_P1;PMS_P2;Temp;Humidity;BMP_temperature;BMP_pressure;BME280_temperature;BME280_humidity;BME280_pressure;Samples;Min_cycle;Max_cycle;Signal;HPM_P1;HPM_P2
2023/08/17 00:01:56;;;;;;;3.67;2.65;;;;;;;21.33;45.84;101427.94;5108725;27;20044;-87
2023/08/17 00:09:00;;;;;;;3.85;2.60;;;;;;;21.26;45.68;101428.88;5069129;27;20619;-85
2023/08/17 00:32:28;;;;;;;3.50;2.60;;;;;;;21.06;46.39;101446.09;4810459;29;20088;-86
2023/08/17 00:35:08;;;;;;;4.10;2.58;;;;;;;21.09;46.06;101442.09;4869699;29;20060;-86
2023/08/17 00:54:38;;;;;;;3.70;2.45;;;;;;;20.95;46.03;101435.41;4973090;28;20076;-86
2023/08/17 00:57:06;;;;;;;3.80;2.75;;;;;;;20.95;45.96;101437.31;5045194;28;20449;-86
2023/08/17 00:59:34;;;;;;;3.80;2.58;;;;;;;20.95;45.90;101423.41;5073320;28;20055;-87
2023/08/17 01:02:41;;;;;;;5.22;2.75;;;;;;;20.88;45.95;101420.53;5072873;28;20326;-87
2023/08/17 01:10:32;;;;;;;3.25;2.55;;;;;;;20.76;45.99;101422.06;5089578;28;20113;-86
2023/08/17 01:13:56;;;;;;;3.38;2.33;;;;;;;20.78;45.85;101425.50;5079264;27;20123;-87
2023/08/17 01:37:11;;;;;;;4.50;2.97;;;;;;;20.42;46.23;101391.03;5025602;28;20051;-87
2023/08/17 02:57:28;;;;;;;7.80;2.50;;;;;;;20.60;46.80;101381.34;4946970;28;20087;-85
2023/08/17 02:59:59;;;;;;;3.53;2.13;;;;;;;20.62;46.60;101372.78;5025107;28;20048;-87
2023/08/17 03:02:29;;;;;;;3.50;2.35;;;;;;;20.66;46.66;101382.50;5089875;28;20407;-86
2023/08/17 03:04:57;;;;;;;4.18;2.38;;;;;;;20.68;46.39;101374.84;5078290;28;20044;-86
2023/08/17 03:07:25;;;;;;;5.65;2.45;;;;;;;20.69;46.48;101371.00;5104984;28;20119;-86
2023/08/17 03:09:54;;;;;;;4.15;2.50;;;;;;;20.70;46.64;101375.50;5089664;28;20044;-85
2023/08/17 04:20:28;;;;;;;10.63;8.10;;;;;;;19.93;47.27;101411.69;4746280;30;20070;-85
2023/08/17 04:22:58;;;;;;;9.50;8.05;;;;;;;19.92;46.79;101401.63;4835323;29;20060;-86
2023/08/17 04:25:26;;;;;;;10.52;8.38;;;;;;;19.91;46.96;101418.47;4942458;28;20044;-86
2023/08/17 04:27:55;;;;;;;11.00;8.27;;;;;;;19.91;46.93;101415.69;5048529;27;20050;-85
2023/08/17 04:30:27;;;;;;;11.95;8.55;;;;;;;19.89;46.68;101415.84;5079812;28;20033;-86
2023/08/17 04:33:18;;;;;;;11.02;8.63;;;;;;;19.90;47.31;101412.00;5105254;27;20070;-86
2023/08/17 04:35:49;;;;;;;10.65;8.30;;;;;;;19.90;46.94;101414.78;5087386;28;20044;-86
2023/08/17 04:38:19;;;;;;;10.45;8.82;;;;;;;19.92;47.02;101418.28;5087835;28;20406;-86
2023/08/17 04:40:57;;;;;;;11.68;8.95;;;;;;;19.93;47.32;101417.25;5081795;28;20059;-86
2023/08/17 04:43:46;;;;;;;9.82;8.15;;;;;;;19.93;47.41;101411.69;5079613;28;20577;-87
2023/08/17 04:46:45;;;;;;;11.32;8.57;;;;;;;19.92;47.12;101417.44;5085808;28;20039;-87
2023/08/17 04:49:20;;;;;;;9.75;8.05;;;;;;;19.91;47.35;101415.69;5086875;28;20099;-87
2023/08/17 04:52:02;;;;;;;10.68;9.02;;;;;;;19.94;47.15;101420.88;5102388;27;20127;-87
2023/08/17 04:54:40;;;;;;;10.13;8.43;;;;;;;19.94;47.07;101418.13;5112592;27;20499;-88
2023/08/17 04:58:03;;;;;;;10.88;8.48;;;;;;;19.92;47.18;101426.63;5117929;27;20043;-88
2023/08/17 06:14:08;;;;;;;5.55;4.03;;;;;;;19.69;47.92;101444.25;4999385;28;20053;-85
2023/08/17 06:16:39;;;;;;;7.15;4.60;;;;;;;19.74;47.94;101439.88;4987506;28;20126;-85
2023/08/17 06:19:08;;;;;;;6.32;4.68;;;;;;;19.75;47.83;101443.50;5061512;28;20047;-86
2023/08/17 06:21:36;;;;;;;7.90;4.28;;;;;;;19.77;47.90;101438.66;5063287;28;20135;-86
2023/08/17 06:24:05;;;;;;;6.85;4.45;;;;;;;19.80;47.45;101441.91;5065113;28;20333;-87
2023/08/17 06:26:33;;;;;;;7.38;4.68;;;;;;;19.81;47.63;101451.13;5058687;28;20037;-85
2023/08/17 06:29:01;;;;;;;6.25;4.18;;;;;;;19.82;47.64;101448.16;5076143;28;20059;-86
2023/08/17 06:31:33;;;;;;;7.53;4.65;;;;;;;19.84;47.55;101445.22;5064660;28;20036;-87
2023/08/17 06:34:01;;;;;;;7.60;4.07;;;;;;;19.84;47.56;101445.22;5066854;28;20518;-86
2023/08/17 06:36:32;;;;;;;6.20;4.40;;;;;;;19.87;47.53;101448.47;5065277;28;20044;-80
2023/08/17 06:39:00;;;;;;;6.13;3.70;;;;;;;19.85;47.63;101450.59;5067134;28;20078;-81
2023/08/17 06:41:28;;;;;;;6.30;3.83;;;;;;;19.87;48.00;101447.63;5109722;27;20044;-81
2023/08/17 06:43:56;;;;;;;7.68;4.40;;;;;;;19.89;47.78;101462.19;5067406;28;20036;-80
2023/08/17 06:46:24;;;;;;;7.22;4.13;;;;;;;19.92;47.91;101450.75;5074372;28;20060;-81
2023/08/17 06:48:53;;;;;;;6.00;4.00;;;;;;;19.96;47.89;101461.31;5089263;28;20127;-80
2023/08/17 06:51:21;;;;;;;5.78;3.72;;;;;;;19.97;47.88;101462.19;5105908;28;20131;-80
2023/08/17 06:53:49;;;;;;;5.60;3.95;;;;;;;20.01;48.02;101449.66;5090834;28;20047;-81
2023/08/17 06:56:17;;;;;;;5.13;3.72;;;;;;;20.04;47.82;101460.41;5068540;28;20086;-80
2023/08/17 06:58:45;;;;;;;6.05;4.25;;;;;;;20.08;47.82;101458.13;5108349;28;20048;-80
2023/08/17 07:01:14;;;;;;;4.97;3.90;;;;;;;20.10;47.73;101454.13;5073605;28;20175;-80
2023/08/17 07:03:42;;;;;;;5.80;4.13;;;;;;;20.14;48.07;101457.41;5095060;28;20048;-80
2023/08/17 07:06:11;;;;;;;7.45;4.57;;;;;;;20.18;47.80;101459.66;5099172;28;20585;-80
2023/08/17 07:08:39;;;;;;;5.53;4.25;;;;;;;20.17;47.74;101466.25;5087548;28;20537;-80
2023/08/17 07:11:08;;;;;;;7.85;5.03;;;;;;;20.19;47.93;101461.38;5074111;28;20040;-80
2023/08/17 07:13:36;;;;;;;5.95;4.47;;;;;;;20.21;47.83;101458.41;5099700;28;20449;-81
2023/08/17 07:16:04;;;;;;;5.78;4.07;;;;;;;20.21;47.53;101456.47;5072396;28;20139;-80
2023/08/17 07:18:32;;;;;;;5.80;4.25;;;;;;;20.21;47.30;101459.25;5102030;28;20046;-80
2023/08/17 07:21:00;;;;;;;6.85;4.22;;;;;;;20.21;47.20;101464.81;5075048;28;20044;-79
2023/08/17 07:23:30;;;;;;;5.45;3.60;;;;;;;20.23;47.41;101464.66;5089617;28;20075;-80
2023/08/17 07:25:58;;;;;;;5.60;3.85;;;;;;;20.21;47.65;101464.81;5070609;28;20049;-80
2023/08/17 07:28:26;;;;;;;5.45;3.65;;;;;;;20.22;47.58;101469.34;5077997;28;20063;-81
2023/08/17 07:30:53;;;;;;;5.57;3.85;;;;;;;20.23;47.65;101467.44;5073778;28;20066;-79
2023/08/17 07:33:22;;;;;;;8.23;4.40;;;;;;;20.22;47.74;101463.78;5113602;27;20050;-80
2023/08/17 07:35:49;;;;;;;6.45;3.67;;;;;;;20.24;47.60;101470.03;5076289;28;20071;-81
2023/08/17 07:38:17;;;;;;;4.93;3.63;;;;;;;20.26;47.60;101476.28;5100973;27;20040;-82
2023/08/17 07:40:47;;;;;;;6.50;3.88;;;;;;;20.30;47.81;101479.53;5077905;28;20247;-81
2023/08/17 07:43:15;;;;;;;6.78;4.00;;;;;;;20.29;47.89;101483.34;5097941;28;20093;-80
2023/08/17 07:45:43;;;;;;;4.63;3.60;;;;;;;20.29;47.81;101475.88;5073399;28;20033;-79
2023/08/17 07:48:11;;;;;;;5.43;4.00;;;;;;;20.31;47.73;101476.56;5072897;28;20076;-80
2023/08/17 07:50:39;;;;;;;6.18;4.05;;;;;;;20.33;47.56;101477.28;5116389;27;20048;-80
2023/08/17 07:53:06;;;;;;;6.00;3.97;;;;;;;20.33;47.43;101481.97;5074725;28;20052;-81
2023/08/17 07:55:34;;;;;;;6.85;4.22;;;;;;;20.33;47.26;101487.53;5074334;28;20580;-81
2023/08/17 07:58:05;;;;;;;5.43;3.88;;;;;;;20.35;47.42;101491.00;5093058;28;20568;-80
2023/08/17 08:00:33;;;;;;;6.18;4.30;;;;;;;20.31;47.46;101478.50;5078684;28;20040;-80
2023/08/17 08:03:01;;;;;;;6.35;3.63;;;;;;;20.30;47.40;101483.19;5074780;28;20573;-79
2023/08/17 08:05:30;;;;;;;5.25;3.67;;;;;;;20.30;47.44;101483.19;5074964;28;20053;-81
2023/08/17 08:07:58;;;;;;;5.55;3.92;;;;;;;20.31;47.39;101489.59;5082401;28;20074;-80
2023/08/17 08:10:25;;;;;;;5.20;4.00;;;;;;;20.30;47.46;101493.44;5070034;28;20060;-81
2023/08/17 08:12:53;;;;;;;5.38;3.97;;;;;;;20.29;47.49;101491.69;5087039;28;20048;-81
2023/08/17 08:15:23;;;;;;;7.53;4.45;;;;;;;20.30;47.51;101490.66;5070588;28;20116;-80
2023/08/17 08:17:51;;;;;;;6.78;4.35;;;;;;;20.27;47.40;101488.25;5070273;28;20701;-80
2023/08/17 08:20:19;;;;;;;6.03;4.40;;;;;;;20.26;47.63;101487.41;5071853;28;20379;-81
2023/08/17 08:22:47;;;;;;;5.53;4.20;;;;;;;20.26;47.41;101483.75;5089801;28;20040;-81
2023/08/17 08:25:15;;;;;;;5.07;4.10;;;;;;;20.24;47.32;101496.94;5072695;28;20097;-79
2023/08/17 08:27:43;;;;;;;5.40;4.18;;;;;;;20.23;47.62;101498.00;5103806;28;20044;-80
2023/08/17 08:30:11;;;;;;;6.13;4.35;;;;;;;20.22;47.42;101496.25;5070222;28;20139;-81
2023/08/17 08:32:40;;;;;;;7.30;4.57;;;;;;;20.24;47.88;101500.59;5068397;28;20142;-79
2023/08/17 08:35:08;;;;;;;8.07;4.57;;;;;;;20.23;47.66;101504.44;5088111;28;20456;-80
2023/08/17 08:37:36;;;;;;;7.35;4.40;;;;;;;20.23;47.77;101493.31;5088768;28;20040;-80
2023/08/17 08:40:13;;;;;;;7.75;4.70;;;;;;;20.26;47.77;101490.16;5067538;28;20055;-80
2023/08/17 08:42:41;;;;;;;6.40;4.78;;;;;;;20.24;48.24;101492.25;5067583;28;20036;-80
2023/08/17 08:45:10;;;;;;;8.52;4.65;;;;;;;20.27;48.17;101499.38;5069174;28;20607;-80
2023/08/17 08:47:42;;;;;;;7.22;4.40;;;;;;;20.27;47.93;101483.56;5072206;28;20044;-80
2023/08/17 08:50:17;;;;;;;6.22;4.35;;;;;;;20.30;48.41;101488.75;5104817;27;20052;-81
2023/08/17 08:52:52;;;;;;;6.53;4.65;;;;;;;20.31;47.90;101486.84;5071258;28;20074;-80
2023/08/17 08:55:23;;;;;;;7.25;5.07;;;;;;;20.34;47.88;101483.69;5075125;28;20040;-82
2023/08/17 08:57:54;;;;;;;6.10;4.78;;;;;;;20.34;47.86;101480.91;5075054;28;20040;-81
2023/08/17 09:00:23;;;;;;;7.18;5.35;;;;;;;20.33;47.86;101474.50;5076265;28;20083;-81
2023/08/17 09:02:53;;;;;;;7.28;5.15;;;;;;;20.34;47.95;101483.69;5079192;28;20048;-81
2023/08/17 09:05:22;;;;;;;6.97;4.47;;;;;;;20.34;47.96;101480.91;5104459;27;20578;-79
2023/08/17 09:07:51;;;;;;;6.32;4.72;;;;;;;20.31;47.85;101479.34;5070111;28;20162;-80
2023/08/17 09:10:18;;;;;;;7.25;5.10;;;;;;;20.32;48.21;101481.09;5084341;28;20527;-80
2023/08/17 09:12:47;;;;;;;6.70;4.90;;;;;;;20.35;48.00;101488.22;5099725;27;20144;-82
2023/08/17 09:15:17;;;;;;;6.78;5.22;;;;;;;20.34;48.04;101480.91;5087334;28;20162;-80
2023/08/17 09:17:45;;;;;;;7.47;4.93;;;;;;;20.34;48.05;101483.69;5070495;28;20163;-80
2023/08/17 09:20:38;;;;;;;6.35;5.50;;;;;;;20.33;47.97;101477.28;5067671;28;20698;-80
2023/08/17 09:23:12;;;;;;;7.25;4.78;;;;;;;20.35;48.13;101477.97;5103803;27;20066;-81
2023/08/17 09:25:42;;;;;;;5.35;4.03;;;;;;;20.35;48.18;101463.19;5070337;28;20054;-81
2023/08/17 09:28:12;;;;;;;6.38;5.13;;;;;;;20.37;47.96;101469.41;5068735;28;20538;-81
2023/08/17 09:30:54;;;;;;;5.82;5.03;;;;;;;20.41;48.09;101476.34;5066817;28;20051;-82
2023/08/17 09:33:24;;;;;;;7.95;5.70;;;;;;;20.37;48.35;101478.63;5103723;27;20063;-80
2023/08/17 09:35:55;;;;;;;7.93;5.90;;;;;;;20.42;47.92;101482.78;5071504;28;20123;-80
2023/08/17 09:38:27;;;;;;;7.18;5.65;;;;;;;20.40;47.85;101481.03;5103691;27;20491;-80
2023/08/17 09:40:55;;;;;;;8.20;6.15;;;;;;;20.40;47.88;101469.91;5086101;28;20058;-80
2023/08/17 09:43:24;;;;;;;8.20;6.25;;;;;;;20.41;48.23;101468.00;5069809;28;20047;-80
2023/08/17 09:45:55;;;;;;;8.20;6.03;;;;;;;20.39;48.04;101459.84;5070656;28;20044;-80
2023/08/17 09:48:23;;;;;;;7.35;6.00;;;;;;;20.40;48.04;101469.91;5101893;28;20139;-80
2023/08/17 09:50:51;;;;;;;9.32;6.50;;;;;;;20.41;48.22;101459.66;5100405;27;20547;-79
2023/08/17 09:53:20;;;;;;;8.63;6.10;;;;;;;20.43;48.53;101463.13;5070603;28;20142;-81
2023/08/17 09:55:48;;;;;;;9.35;6.65;;;;;;;20.43;48.50;101460.34;5071255;28;20119;-82
2023/08/17 09:58:16;;;;;;;7.07;5.78;;;;;;;20.45;48.34;101462.97;5068311;28;20048;-81
2023/08/17 10:00:46;;;;;;;8.13;6.55;;;;;;;20.48;48.55;101462.56;5100122;27;20074;-80
2023/08/17 10:03:20;;;;;;;7.72;6.20;;;;;;;20.48;48.30;101460.66;5075939;28;20131;-80
2023/08/17 10:06:03;;;;;;;8.88;6.50;;;;;;;20.52;48.41;101459.25;5073818;28;20140;-81
2023/08/17 10:08:34;;;;;;;8.40;6.43;;;;;;;20.54;48.30;101457.13;5091833;28;20044;-80
2023/08/17 10:11:09;;;;;;;7.85;6.53;;;;;;;20.57;48.46;101455.91;5094999;28;20377;-82
2023/08/17 10:13:43;;;;;;;9.32;6.18;;;;;;;20.60;48.33;101458.34;5106950;27;20407;-81
2023/08/17 10:16:20;;;;;;;7.65;5.70;;;;;;;20.64;48.63;101455.00;5071321;28;20067;-81
2023/08/17 10:18:54;;;;;;;7.18;6.03;;;;;;;20.67;48.51;101451.00;5071483;28;20067;-81
2023/08/17 10:21:28;;;;;;;8.02;6.00;;;;;;;20.69;48.50;101452.53;5083500;28;20125;-80
2023/08/17 10:23:58;;;;;;;8.13;5.97;;;;;;;20.68;48.34;101450.81;5066514;28;20480;-80
2023/08/17 10:26:26;;;;;;;8.00;6.00;;;;;;;20.68;48.10;101453.59;5066646;28;20043;-79
2023/08/17 10:28:57;;;;;;;8.00;6.03;;;;;;;20.70;48.41;101454.25;5085040;28;20060;-80
2023/08/17 10:31:27;;;;;;;6.47;5.22;;;;;;;20.71;48.38;101449.53;5063159;28;20063;-80
2023/08/17 10:33:57;;;;;;;6.65;5.30;;;;;;;20.74;48.46;101458.41;5100789;28;20052;-82
2023/08/17 10:36:25;;;;;;;8.00;5.85;;;;;;;20.75;48.27;101462.91;5067259;28;20073;-81
2023/08/17 10:39:23;;;;;;;7.97;5.80;;;;;;;20.79;48.27;101468.94;5067842;28;20063;-82
2023/08/17 10:41:57;;;;;;;7.88;5.93;;;;;;;20.77;48.26;101466.38;5066029;28;20051;-82
2023/08/17 10:44:44;;;;;;;6.97;5.80;;;;;;;20.84;48.77;101466.50;5068872;28;20043;-81
2023/08/17 10:47:23;;;;;;;8.18;6.22;;;;;;;20.87;48.39;101471.66;5067010;28;20529;-80
2023/08/17 10:49:51;;;;;;;9.98;7.00;;;;;;;20.87;48.39;101468.88;5067911;28;20543;-81
2023/08/17 10:52:32;;;;;;;10.32;7.43;;;;;;;20.93;48.23;101472.84;5063706;28;20075;-81
2023/08/17 10:55:05;;;;;;;8.52;6.95;;;;;;;20.93;48.21;101472.84;5068228;28;20059;-80
2023/08/17 10:57:34;;;;;;;10.52;7.20;;;;;;;20.94;48.09;101471.81;5070977;28;20139;-81
2023/08/17 11:00:26;;;;;;;9.35;7.80;;;;;;;20.93;48.19;101465.38;5069662;28;20131;-80
2023/08/17 11:02:58;;;;;;;8.88;7.28;;;;;;;20.97;48.07;101463.06;5070784;28;20067;-80
2023/08/17 11:05:37;;;;;;;9.23;6.97;;;;;;;20.99;48.08;101470.16;5075543;28;20055;-81
2023/08/17 11:08:06;;;;;;;8.73;6.93;;;;;;;20.99;48.00;101474.88;5094829;28;20305;-79
2023/08/17 11:10:36;;;;;;;8.90;7.05;;;;;;;21.02;48.01;101469.81;5075380;28;20111;-79
2023/08/17 11:13:04;;;;;;;8.43;6.30;;;;;;;21.01;48.01;101461.66;5100988;28;20044;-81
2023/08/17 11:15:38;;;;;;;8.43;6.32;;;;;;;21.03;47.82;101454.81;5080100;28;20427;-82
2023/08/17 11:18:07;;;;;;;7.20;5.50;;;;;;;21.03;48.09;101451.16;5110821;28;20040;-81
2023/08/17 11:20:39;;;;;;;6.38;5.20;;;;;;;21.03;48.19;101468.72;5073228;28;20040;-81
2023/08/17 11:23:07;;;;;;;8.63;6.30;;;;;;;21.04;48.21;101467.69;5117307;27;20040;-80
2023/08/17 11:25:38;;;;;;;7.72;6.10;;;;;;;21.07;48.50;101470.09;5107044;27;20058;-81
2023/08/17 11:28:09;;;;;;;7.38;5.75;;;;;;;21.09;48.20;101462.44;5075152;28;20131;-81
2023/08/17 11:30:38;;;;;;;7.18;5.22;;;;;;;21.10;48.34;101457.72;5072597;28;20437;-80
2023/08/17 11:33:08;;;;;;;7.55;5.63;;;;;;;21.13;48.31;101455.41;5082234;28;20130;-81
2023/08/17 11:35:36;;;;;;;8.48;5.45;;;;;;;21.15;48.29;101463.59;5071711;28;20055;-80
2023/08/17 11:38:05;;;;;;;8.45;6.03;;;;;;;21.19;48.31;101458.50;5076632;28;20045;-81
2023/08/17 11:40:37;;;;;;;7.38;5.53;;;;;;;21.21;48.36;101465.59;5110313;27;20130;-81
2023/08/17 11:43:05;;;;;;;6.38;4.70;;;;;;;21.24;48.25;101459.66;5094919;28;20086;-80
2023/08/17 11:45:34;;;;;;;9.38;5.82;;;;;;;21.27;48.22;101461.25;5076570;28;20047;-79
2023/08/17 11:48:03;;;;;;;8.38;5.63;;;;;;;21.30;48.29;101455.28;5092752;28;20044;-80
2023/08/17 11:50:32;;;;;;;7.20;5.70;;;;;;;21.31;48.40;101457.88;5087361;28;20513;-80
2023/08/17 11:53:00;;;;;;;7.07;5.75;;;;;;;21.32;48.22;101456.81;5105206;27;20044;-81
2023/08/17 11:55:29;;;;;;;7.68;5.25;;;;;;;21.35;48.09;101461.16;5105646;27;20293;-81
2023/08/17 11:57:58;;;;;;;6.53;4.90;;;;;;;21.38;48.11;101458.84;5105226;27;20048;-81
2023/08/17 12:00:26;;;;;;;6.50;4.78;;;;;;;21.40;48.53;101464.22;5080237;28;20113;-81
2023/08/17 12:02:54;;;;;;;6.45;4.75;;;;;;;21.43;48.23;101461.94;5072396;28;20530;-81
2023/08/17 12:05:24;;;;;;;6.70;4.70;;;;;;;21.48;48.27;101461.34;5093266;28;20055;-80
2023/08/17 12:07:54;;;;;;;6.00;4.95;;;;;;;21.54;48.25;101460.56;5076066;28;20040;-82
2023/08/17 12:10:23;;;;;;;6.28;4.97;;;;;;;21.56;48.06;101458.47;5087715;28;20043;-82
2023/08/17 12:12:51;;;;;;;6.38;4.88;;;;;;;21.62;47.94;101456.81;5091743;28;20071;-81
2023/08/17 12:15:21;;;;;;;7.40;5.15;;;;;;;21.67;48.08;101457.13;5092671;28;20060;-81
2023/08/17 12:17:52;;;;;;;5.75;4.53;;;;;;;21.69;47.77;101461.41;5073309;28;20411;-82
2023/08/17 12:20:21;;;;;;;6.90;5.20;;;;;;;21.72;47.63;101454.63;5090901;28;20385;-82
2023/08/17 12:22:49;;;;;;;6.90;5.32;;;;;;;21.75;47.48;101451.44;5075661;28;20515;-81
2023/08/17 12:25:22;;;;;;;5.95;4.78;;;;;;;21.81;47.20;101453.44;5071034;28;20040;-81
2023/08/17 12:27:50;;;;;;;;;;;;;;;21.52;48.28;101443.19;5076323;28;20037;-83
2023/08/17 12:30:31;;;;;;;6.13;4.68;;;;;;;21.83;47.42;101456.91;5079853;28;19924;-81
2023/08/17 12:32:59;;;;;;;7.03;5.10;;;;;;;21.84;47.58;101447.50;5103890;27;20064;-82
2023/08/17 12:35:27;;;;;;;6.53;5.35;;;;;;;21.89;47.25;101448.63;5072740;28;20044;-82
2023/08/17 12:37:56;;;;;;;6.22;5.40;;;;;;;21.91;47.16;101442.91;5089698;28;20047;-82
2023/08/17 12:40:24;;;;;;;6.90;4.88;;;;;;;21.93;46.99;101454.72;5074129;28;20119;-81
2023/08/17 12:42:53;;;;;;;6.03;4.85;;;;;;;21.94;47.01;101452.78;5076143;28;20068;-82
2023/08/17 12:45:21;;;;;;;5.35;4.53;;;;;;;21.96;47.14;101453.44;5079287;28;20053;-82
2023/08/17 12:48:01;;;;;;;5.97;4.60;;;;;;;22.00;46.92;101452.03;5106410;27;20040;-84
2023/08/17 12:50:29;;;;;;;5.80;4.63;;;;;;;21.99;47.05;101453.06;5075407;28;20049;-82
2023/08/17 12:52:57;;;;;;;5.63;4.50;;;;;;;22.01;47.17;101453.75;5090636;28;20040;-82
2023/08/17 12:55:25;;;;;;;6.22;5.22;;;;;;;22.01;47.19;101449.03;5075596;28;20037;-81
2023/08/17 12:57:53;;;;;;;6.05;4.85;;;;;;;22.03;46.91;101451.59;5108773;27;20124;-82
2023/08/17 13:00:21;;;;;;;6.30;5.35;;;;;;;22.04;47.01;101448.63;5079997;28;20278;-82
2023/08/17 13:02:51;;;;;;;6.15;5.13;;;;;;;22.06;46.78;101456.81;5099147;28;20133;-82
2023/08/17 13:05:20;;;;;;;7.75;5.85;;;;;;;22.07;46.72;101455.75;5088934;28;20055;-82
2023/08/17 13:07:48;;;;;;;6.57;5.40;;;;;;;22.05;46.89;101455.06;5073311;28;20048;-83
2023/08/17 13:10:16;;;;;;;6.85;5.93;;;;;;;22.04;46.89;101447.75;5105447;28;20044;-80
2023/08/17 13:12:44;;;;;;;7.30;6.18;;;;;;;22.05;46.82;101446.72;5075298;28;20044;-82
2023/08/17 13:15:12;;;;;;;7.68;6.40;;;;;;;22.05;46.72;101443.94;5074666;28;20046;-80
2023/08/17 13:17:41;;;;;;;6.47;5.55;;;;;;;22.04;46.86;101451.41;5075563;28;20129;-80
2023/08/17 13:20:10;;;;;;;8.25;5.55;;;;;;;22.06;46.78;101449.31;5077049;28;20080;-80
2023/08/17 13:22:39;;;;;;;6.32;5.38;;;;;;;22.08;46.88;101446.34;5084782;28;20051;-81
2023/08/17 13:25:08;;;;;;;6.68;5.35;;;;;;;22.08;46.84;101440.75;5068997;28;20396;-80
2023/08/17 13:27:36;;;;;;;6.53;5.20;;;;;;;22.09;46.93;101451.72;5071888;28;20071;-80
2023/08/17 13:30:04;;;;;;;7.30;5.70;;;;;;;22.11;46.87;101443.13;5074856;28;20126;-80
2023/08/17 13:32:32;;;;;;;6.63;5.22;;;;;;;22.13;46.80;101449.38;5078923;28;20063;-80
2023/08/17 13:35:02;;;;;;;6.15;5.03;;;;;;;22.13;46.95;101447.47;5078513;28;20051;-81
2023/08/17 13:37:30;;;;;;;6.20;5.47;;;;;;;22.16;46.82;101454.56;5094182;28;20056;-79
2023/08/17 13:40:00;;;;;;;6.82;6.00;;;;;;;22.18;46.83;101447.72;5073246;28;20553;-80
2023/08/17 13:42:28;;;;;;;6.28;5.28;;;;;;;22.18;46.60;101447.72;5073976;28;20048;-81
2023/08/17 13:44:56;;;;;;;6.60;5.28;;;;;;;22.20;46.60;101445.59;5075873;28;20093;-80
2023/08/17 13:47:24;;;;;;;7.78;4.95;;;;;;;22.20;46.57;101437.25;5070205;28;20059;-80
2023/08/17 13:49:53;;;;;;;5.10;4.60;;;;;;;22.23;46.70;101445.22;5084930;28;20147;-79
2023/08/17 13:52:22;;;;;;;6.18;4.43;;;;;;;22.24;46.62;101437.72;5071075;28;20051;-81
2023/08/17 13:54:50;;;;;;;5.57;4.70;;;;;;;22.27;46.70;101440.97;5073836;28;20048;-80
2023/08/17 13:57:19;;;;;;;5.05;4.35;;;;;;;22.32;46.68;101431.16;5073571;28;20048;-80
2023/08/17 13:59:47;;;;;;;7.00;5.93;;;;;;;22.31;46.51;101430.28;5078319;28;20063;-80
2023/08/17 14:02:15;;;;;;;6.05;4.88;;;;;;;22.33;46.38;101433.75;5102687;28;20074;-81
2023/08/17 14:04:43;;;;;;;6.30;4.95;;;;;;;22.35;46.58;101425.16;5072774;28;20070;-81
2023/08/17 14:07:11;;;;;;;6.22;4.88;;;;;;;22.35;46.38;101425.16;5072495;28;20454;-80
2023/08/17 14:09:39;;;;;;;7.80;5.18;;;;;;;22.36;46.46;101421.31;5073022;28;20523;-79
2023/08/17 14:12:11;;;;;;;;;;;;;;;22.05;47.01;101416.06;5072324;28;20036;-80
2023/08/17 14:14:40;;;;;;;6.35;5.28;;;;;;;22.31;46.42;101424.72;5073762;28;20017;-78
2023/08/17 14:17:08;;;;;;;7.03;5.50;;;;;;;22.31;46.22;101416.34;5103626;27;20052;-78
2023/08/17 14:19:38;;;;;;;6.53;4.95;;;;;;;22.32;46.01;101411.63;5079602;28;20121;-79
2023/08/17 14:22:06;;;;;;;5.95;4.53;;;;;;;22.31;46.35;101413.56;5077184;28;20051;-81
2023/08/17 14:24:33;;;;;;;5.40;4.75;;;;;;;22.32;46.50;101411.63;5073471;28;20047;-79
2023/08/17 14:27:02;;;;;;;6.47;5.15;;;;;;;22.32;46.68;101409.72;5113286;27;20518;-79
2023/08/17 14:29:30;;;;;;;6.60;4.72;;;;;;;22.33;46.65;101416.16;5071479;28;20048;-79
2023/08/17 14:31:59;;;;;;;5.82;5.22;;;;;;;22.36;46.54;101412.94;5076169;28;20052;-80
2023/08/17 14:34:27;;;;;;;5.38;4.55;;;;;;;22.35;46.42;101412.09;5106682;28;20064;-79
2023/08/17 14:36:55;;;;;;;5.28;4.43;;;;;;;22.37;46.49;101401.59;5071814;28;20596;-79
2023/08/17 14:39:23;;;;;;;6.18;4.90;;;;;;;22.39;46.92;101401.41;5095495;28;20106;-80
2023/08/17 14:41:52;;;;;;;5.55;4.65;;;;;;;22.41;46.41;101407.66;5108179;27;20036;-79
2023/08/17 14:44:21;;;;;;;6.07;5.05;;;;;;;22.42;46.31;101395.44;5075555;28;20040;-79
2023/08/17 14:46:49;;;;;;;5.80;4.90;;;;;;;22.43;46.18;101394.34;5093826;28;20147;-79
2023/08/17 14:49:18;;;;;;;6.43;4.72;;;;;;;22.45;45.89;101393.09;5088403;28;20040;-80
2023/08/17 14:51:47;;;;;;;5.93;5.05;;;;;;;22.43;46.03;101384.06;5074923;28;20290;-79
2023/08/17 14:54:15;;;;;;;6.70;4.93;;;;;;;22.42;45.64;101381.50;5076686;28;20142;-80
2023/08/17 14:56:43;;;;;;;5.05;4.10;;;;;;;22.43;45.87;101381.28;5075497;28;20470;-80
2023/08/17 14:59:11;;;;;;;5.20;4.18;;;;;;;22.41;45.77;101386.22;5074205;28;20048;-79
2023/08/17 15:01:39;;;;;;;6.20;4.50;;;;;;;22.40;45.67;101381.69;5097476;28;20038;-79
2023/08/17 15:04:07;;;;;;;5.30;4.47;;;;;;;22.38;45.88;101375.44;5095185;28;20466;-80
2023/08/17 15:06:36;;;;;;;5.95;4.90;;;;;;;22.40;45.70;101378.91;5088485;28;20040;-80
2023/08/17 15:09:09;;;;;;;6.38;4.88;;;;;;;22.38;45.86;101386.59;5083618;28;20048;-80
2023/08/17 15:11:37;;;;;;;5.55;4.93;;;;;;;22.37;45.53;101375.63;5109081;28;20059;-79
2023/08/17 15:14:05;;;;;;;7.57;5.75;;;;;;;22.35;45.90;101374.97;5081117;28;20491;-78
2023/08/17 15:16:33;;;;;;;7.43;5.70;;;;;;;22.35;45.82;101369.41;5072885;28;20048;-79
2023/08/17 15:19:01;;;;;;;6.05;5.38;;;;;;;22.34;45.97;101371.34;5077341;28;20050;-77
2023/08/17 15:21:29;;;;;;;7.57;6.07;;;;;;;22.34;45.76;101371.34;5109098;28;20043;-79
2023/08/17 15:23:59;;;;;;;8.30;6.13;;;;;;;22.35;45.86;101375.84;5107337;28;20044;-78
2023/08/17 15:26:28;;;;;;;8.85;6.78;;;;;;;22.28;45.82;101370.19;5093784;28;20474;-78
2023/08/17 15:28:56;;;;;;;8.10;6.70;;;;;;;22.28;45.87;101370.19;5101076;28;20124;-79
2023/08/17 15:31:24;;;;;;;10.10;7.70;;;;;;;22.27;46.08;101360.09;5082478;28;20044;-80
2023/08/17 15:33:52;;;;;;;8.88;7.25;;;;;;;22.25;46.00;101358.59;5072825;28;20110;-79
2023/08/17 15:36:23;;;;;;;8.50;6.45;;;;;;;22.23;45.94;101346.78;5077572;28;20143;-80
2023/08/17 15:38:51;;;;;;;8.23;6.22;;;;;;;22.21;46.22;101346.09;5101884;28;20044;-80
2023/08/17 15:41:20;;;;;;;8.88;6.82;;;;;;;22.22;46.00;101342.25;5071055;28;20142;-79
2023/08/17 15:43:48;;;;;;;7.45;6.40;;;;;;;22.18;46.21;101336.19;5105731;28;20093;-79
2023/08/17 15:46:16;;;;;;;8.93;6.55;;;;;;;22.16;46.34;101338.34;5081072;28;20040;-79
2023/08/17 15:51:53;;;;;;;8.80;6.47;;;;;;;22.11;45.68;101334.41;5110675;27;20060;-81
2023/08/17 15:54:22;;;;;;;7.82;6.22;;;;;;;22.11;46.13;101332.50;5080352;28;20078;-77
2023/08/17 15:57:04;;;;;;;8.52;6.93;;;;;;;22.10;46.27;101333.56;5074980;28;20522;-77
2023/08/17 15:59:33;;;;;;;8.48;7.20;;;;;;;22.09;45.97;101329.06;5111884;28;20055;-77
2023/08/17 16:02:01;;;;;;;7.60;6.80;;;;;;;22.08;45.99;101330.13;5100990;28;20123;-79
2023/08/17 16:04:29;;;;;;;9.40;6.90;;;;;;;22.07;46.04;101324.75;5110846;27;20096;-78
2023/08/17 16:06:57;;;;;;;6.82;6.13;;;;;;;22.06;45.96;101325.78;5092165;28;20086;-77
2023/08/17 16:09:25;;;;;;;7.45;6.28;;;;;;;22.02;46.04;101316.09;5097859;28;20426;-77
2023/08/17 16:11:58;;;;;;;6.93;6.22;;;;;;;22.00;46.03;101312.66;5099750;28;20111;-79
2023/08/17 16:14:28;;;;;;;7.55;6.25;;;;;;;21.99;45.81;101311.81;5073557;28;20048;-78
2023/08/17 16:16:56;;;;;;;7.55;6.50;;;;;;;21.95;45.80;101317.94;5110534;27;20493;-79
2023/08/17 16:19:24;;;;;;;6.45;5.75;;;;;;;21.93;45.73;101309.81;5103971;27;20068;-78
2023/08/17 16:21:52;;;;;;;7.68;5.32;;;;;;;21.91;45.90;101294.34;5098052;28;20047;-77
2023/08/17 16:24:22;;;;;;;7.15;5.55;;;;;;;21.88;45.72;101303.91;5095875;27;20089;-77
2023/08/17 16:26:53;;;;;;;5.75;5.10;;;;;;;21.88;46.03;101307.56;5087601;28;20051;-79
2023/08/17 16:29:31;;;;;;;6.40;5.45;;;;;;;21.88;46.02;101301.13;5082260;28;20050;-79
2023/08/17 16:32:41;;;;;;;7.15;5.57;;;;;;;21.82;46.18;101299.16;5108053;28;20047;-80